createdAt,value
2022-10-05T06:35:08.857Z,92.10
2022-10-05T06:37:50.891Z,92.00
2022-10-05T06:40:36.548Z,91.90
2022-10-05T06:43:16.862Z,91.90
2022-10-05T06:45:55.625Z,91.80
2022-10-05T06:48:40.982Z,91.90
2022-10-05T06:51:20.627Z,91.80
2022-10-05T06:54:04.814Z,91.90
2022-10-05T06:56:51.201Z,91.90
2022-10-05T06:59:25.420Z,92.20
2022-10-05T07:01:58.588Z,91.70
2022-10-05T07:04:58.980Z,91.60
2022-10-05T07:07:37.404Z,91.70
2022-10-05T07:10:34.354Z,91.70
2022-10-05T07:13:28.214Z,91.90
2022-10-05T07:16:15.944Z,91.70
2022-10-05T07:19:22.181Z,91.70
2022-10-05T07:22:03.846Z,91.60
2022-10-05T07:24:41.220Z,91.40
2022-10-05T07:27:15.349Z,91.50
2022-10-05T07:30:00.487Z,91.40
2022-10-05T07:32:42.703Z,91.40
2022-10-05T07:35:55.077Z,91.30
2022-10-05T07:38:54.316Z,91.20
2022-10-05T07:41:40.237Z,91.30
2022-10-05T07:44:16.479Z,91.00
2022-10-05T07:47:00.613Z,91.10
2022-10-05T07:49:34.226Z,91.00
2022-10-05T07:52:04.957Z,90.90
2022-10-05T07:54:59.276Z,91.00
2022-10-05T07:57:49.255Z,90.90
2022-10-05T08:00:19.051Z,90.90
2022-10-05T08:03:01.115Z,90.90
2022-10-05T08:05:38.209Z,90.80
2022-10-05T08:08:12.383Z,90.90
2022-10-05T08:10:58.038Z,90.80
2022-10-05T08:13:44.513Z,90.70
2022-10-05T08:16:12.662Z,90.50
2022-10-05T08:19:14.407Z,90.60
2022-10-05T08:21:58.599Z,90.70
2022-10-05T08:24:42.988Z,90.70
2022-10-05T08:27:34.253Z,90.70
2022-10-05T08:30:04.510Z,90.60
2022-10-05T08:32:38.471Z,90.60
2022-10-05T08:35:39.341Z,90.30
2022-10-05T08:38:16.974Z,90.50
2022-10-05T08:41:01.702Z,90.00
2022-10-05T08:44:00.583Z,90.20
2022-10-05T08:46:42.382Z,89.70
2022-10-05T08:49:49.190Z,89.80
2022-10-05T08:52:43.740Z,89.50
2022-10-05T08:55:10.401Z,89.30
2022-10-05T08:57:59.797Z,89.10
2022-10-05T09:00:40.976Z,89.20
2022-10-05T09:03:34.939Z,88.60
2022-10-05T09:06:14.350Z,87.20
2022-10-05T09:08:51.354Z,87.30
2022-10-05T09:11:38.947Z,87.10
2022-10-05T09:14:52.631Z,86.00
2022-10-05T09:17:48.831Z,86.40
2022-10-05T09:20:33.059Z,86.30
2022-10-05T09:23:02.914Z,85.60
2022-10-05T09:25:38.844Z,86.10
2022-10-05T09:28:31.218Z,85.80
2022-10-05T09:31:21.703Z,86.30
2022-10-05T09:34:26.453Z,86.10
2022-10-05T09:37:20.683Z,85.90
2022-10-05T09:40:01.435Z,86.10
2022-10-05T09:42:40.601Z,85.90
2022-10-05T09:45:35.749Z,86.00
2022-10-05T09:48:21.876Z,86.10
2022-10-05T09:50:51.350Z,86.40
2022-10-05T09:53:48.908Z,86.60
2022-10-05T09:57:04.184Z,86.10
2022-10-05T10:00:00.538Z,86.60
2022-10-05T10:03:08.168Z,86.10
2022-10-05T10:05:55.305Z,86.00
2022-10-05T10:08:57.892Z,86.30
2022-10-05T10:12:13.411Z,86.50
2022-10-05T10:15:03.648Z,85.90
2022-10-05T10:17:55.199Z,85.90
2022-10-05T10:21:01.898Z,86.40
2022-10-05T10:24:00.315Z,86.00
2022-10-05T10:26:53.342Z,85.70
2022-10-05T10:29:38.317Z,85.50
2022-10-05T10:32:36.346Z,86.30
2022-10-05T10:35:27.298Z,85.80
2022-10-05T10:38:23.734Z,85.90
2022-10-05T10:41:22.991Z,86.00
2022-10-05T10:43:58.239Z,85.50
2022-10-05T10:46:53.252Z,85.20
2022-10-05T10:49:46.751Z,85.20
2022-10-05T10:52:39.282Z,85.10
2022-10-05T10:55:27.190Z,84.90
2022-10-05T11:01:30.859Z,86.00
2022-10-05T11:04:22.054Z,85.50
2022-10-05T11:07:12.663Z,85.10
2022-10-05T11:09:45.504Z,85.20
2022-10-05T11:12:53.200Z,85.20
2022-10-05T11:15:51.368Z,85.20
2022-10-05T11:18:33.107Z,84.80
2022-10-05T11:21:20.410Z,84.30
2022-10-05T11:24:05.254Z,84.50
2022-10-05T11:27:00.346Z,83.90
2022-10-05T11:29:49.204Z,83.90
2022-10-05T11:32:45.988Z,83.90
2022-10-05T11:35:39.016Z,83.70
2022-10-05T11:38:26.707Z,82.90
2022-10-05T11:41:28.148Z,83.00
2022-10-05T11:44:42.984Z,82.60
2022-10-05T11:47:28.232Z,83.10
2022-10-05T11:50:14.120Z,82.50
2022-10-05T11:52:58.820Z,81.90
2022-10-05T11:55:45.696Z,80.60
2022-10-05T11:58:15.135Z,79.90
2022-10-05T12:00:50.161Z,80.30
2022-10-05T12:03:40.573Z,79.90
2022-10-05T12:06:40.574Z,78.90
2022-10-05T12:10:01.560Z,78.10
2022-10-05T12:12:35.386Z,78.70
2022-10-05T12:15:29.140Z,78.40
2022-10-05T12:18:08.267Z,78.60
2022-10-05T12:20:40.635Z,78.40
2022-10-05T12:23:27.863Z,78.50
2022-10-05T12:26:05.751Z,78.00
2022-10-05T12:28:51.852Z,77.90
2022-10-05T12:31:28.991Z,77.70
2022-10-05T12:34:14.578Z,77.20
2022-10-05T12:37:06.468Z,77.00
2022-10-05T12:39:42.530Z,76.30
2022-10-05T12:42:21.237Z,76.60
2022-10-05T12:45:21.040Z,76.80
2022-10-05T12:48:06.649Z,76.70
2022-10-05T12:50:42.120Z,76.00
2022-10-05T12:53:22.358Z,75.90
2022-10-05T12:56:24.141Z,76.30
2022-10-05T12:59:24.744Z,76.40
2022-10-05T13:02:01.462Z,77.40
2022-10-05T13:04:49.310Z,78.00
2022-10-05T13:07:31.028Z,77.90
2022-10-05T13:10:28.076Z,78.50
2022-10-05T13:13:24.896Z,78.70
2022-10-05T13:16:00.572Z,78.30
2022-10-05T13:18:54.543Z,78.20
2022-10-05T13:21:30.952Z,77.90
2022-10-05T13:24:30.321Z,77.80
2022-10-05T13:27:13.669Z,77.50
2022-10-05T13:30:19.991Z,78.20
2022-10-05T13:32:53.456Z,78.20
2022-10-05T13:35:52.612Z,77.70
2022-10-05T13:38:28.367Z,77.50
2022-10-05T13:41:17.732Z,77.30
2022-10-05T13:43:53.901Z,77.90
2022-10-05T13:46:26.802Z,77.90
2022-10-05T13:49:23.192Z,76.40
2022-10-05T13:52:06.673Z,74.80
2022-10-05T13:54:57.149Z,74.80
2022-10-05T13:57:26.520Z,74.20
2022-10-05T14:00:01.172Z,74.10
2022-10-05T14:02:31.322Z,74.80
2022-10-05T14:05:00.658Z,74.70
2022-10-05T14:07:38.802Z,73.90
2022-10-05T14:10:13.531Z,74.60
2022-10-05T14:12:42.901Z,74.80
2022-10-05T14:15:23.162Z,74.80
2022-10-05T14:17:51.704Z,74.70
2022-10-05T14:20:31.405Z,74.30
2022-10-05T14:23:02.046Z,74.40
2022-10-05T14:25:30.599Z,74.00
2022-10-05T14:28:12.463Z,74.20
2022-10-05T14:30:40.420Z,73.20
2022-10-05T14:33:16.717Z,73.30
2022-10-05T14:35:49.415Z,73.10
2022-10-05T14:38:18.745Z,73.50
2022-10-05T14:40:45.356Z,73.60
2022-10-05T14:43:15.092Z,73.80
2022-10-05T14:46:00.769Z,73.60
2022-10-05T14:48:29.662Z,73.00
2022-10-05T14:51:03.883Z,72.70
2022-10-05T14:53:39.772Z,72.60
2022-10-05T14:56:49.236Z,73.60
2022-10-05T14:59:47.880Z,73.10
2022-10-05T15:02:51.517Z,73.40
2022-10-05T15:05:24.704Z,73.30
2022-10-05T15:07:57.140Z,73.60
2022-10-05T15:10:39.045Z,73.30
2022-10-05T15:13:17.308Z,73.30
2022-10-05T15:15:54.660Z,73.00
2022-10-05T15:18:36.415Z,72.80
2022-10-05T15:21:23.711Z,72.90
2022-10-05T15:23:57.423Z,73.50
2022-10-05T15:26:38.932Z,73.60
2022-10-05T15:29:11.497Z,74.30
2022-10-05T15:32:01.997Z,74.80
2022-10-05T15:34:58.494Z,75.30
2022-10-05T15:37:36.533Z,75.70
2022-10-05T15:40:08.601Z,75.70
2022-10-05T15:42:38.253Z,75.60
2022-10-05T15:45:30.117Z,75.00
2022-10-05T15:48:02.808Z,73.80
2022-10-05T15:50:32.286Z,73.80
2022-10-05T15:53:22.024Z,73.80
2022-10-05T15:56:14.611Z,73.20
2022-10-05T15:58:56.995Z,73.20
2022-10-05T16:01:32.807Z,73.60
2022-10-05T16:04:34.691Z,73.20
2022-10-05T16:07:22.095Z,73.00
2022-10-05T16:10:00.289Z,73.10
2022-10-05T16:12:34.138Z,73.10
2022-10-05T16:15:17.607Z,73.90
2022-10-05T16:18:02.940Z,73.70
2022-10-05T16:20:46.714Z,73.90
2022-10-05T16:23:17.735Z,74.40
2022-10-05T16:26:01.463Z,74.60
2022-10-05T16:28:50.447Z,74.70
2022-10-05T16:31:48.101Z,75.10
2022-10-05T16:34:45.956Z,76.30
2022-10-05T16:37:47.459Z,75.60
2022-10-05T16:40:41.830Z,75.90
2022-10-05T16:43:40.813Z,76.00
2022-10-05T16:46:22.158Z,76.50
2022-10-05T16:49:14.115Z,76.60
2022-10-05T16:51:59.284Z,76.80
2022-10-05T16:54:51.822Z,77.00
2022-10-05T16:57:35.263Z,77.10
2022-10-05T17:00:20.276Z,77.20
2022-10-05T17:02:56.315Z,77.50
2022-10-05T17:05:30.705Z,77.60
2022-10-05T17:08:36.643Z,77.90
2022-10-05T17:11:41.859Z,78.30
2022-10-05T17:14:20.228Z,78.40
2022-10-05T17:17:20.888Z,78.60
2022-10-05T17:19:58.394Z,78.70
2022-10-05T17:22:47.852Z,78.80
2022-10-05T17:25:24.179Z,79.10
2022-10-05T17:27:52.973Z,79.10
2022-10-05T17:30:22.681Z,79.20
2022-10-05T17:33:00.565Z,79.50
2022-10-05T17:35:53.711Z,79.60
2022-10-05T17:38:36.002Z,79.80
2022-10-05T17:41:22.531Z,80.00
2022-10-05T17:44:20.246Z,80.10
2022-10-05T17:46:49.924Z,80.20
2022-10-05T17:49:40.440Z,80.30
2022-10-05T17:52:45.621Z,80.50
2022-10-05T17:55:30.879Z,80.60
2022-10-05T17:57:59.648Z,80.70
2022-10-05T18:00:34.595Z,80.70
2022-10-05T18:03:40.927Z,81.00
2022-10-05T18:06:25.629Z,81.10
2022-10-05T18:09:16.870Z,81.40
2022-10-05T18:11:47.959Z,81.30
2022-10-05T18:14:24.623Z,81.50
2022-10-05T18:17:02.926Z,81.60
2022-10-05T18:19:33.238Z,81.60
2022-10-05T18:22:27.014Z,81.70
2022-10-05T18:25:04.228Z,81.90
2022-10-05T18:28:05.371Z,81.90
2022-10-05T18:30:58.986Z,82.20
2022-10-05T18:33:49.490Z,82.20
2022-10-05T18:36:55.385Z,82.30
2022-10-05T18:39:40.586Z,82.60
2022-10-05T18:42:55.643Z,82.70
2022-10-05T18:45:57.685Z,82.80
2022-10-05T18:48:35.538Z,83.00
2022-10-05T18:51:24.532Z,83.00
2022-10-05T18:54:21.509Z,82.90
2022-10-05T18:56:52.778Z,83.00
2022-10-05T18:59:47.119Z,83.20
2022-10-05T19:02:35.485Z,83.20
2022-10-05T19:05:49.025Z,83.20
2022-10-05T19:08:49.694Z,83.50
2022-10-05T19:11:33.134Z,83.30
2022-10-05T19:14:19.708Z,83.40
2022-10-05T19:17:24.091Z,83.40
2022-10-05T19:19:56.822Z,83.60
2022-10-05T19:22:40.182Z,83.80
2022-10-05T19:25:28.659Z,84.40
2022-10-05T19:28:17.361Z,85.40
2022-10-05T19:31:01.234Z,86.30
2022-10-05T19:33:51.946Z,86.10
